Portada
METAR-TAF:

METAR-TAF

Aeropuertos :

Aeropuerto Internacional Mitiga

Trípoli, Libia

latitud: 32-54N, longitud: 13-17E, altitud: 11 m

Observación

El informe se hizo hace 48 minutos, a las 09:50 UTC
Viento 10 kt del norte-noroeste
Temperatura 23°C
Humedad 61%
Presión 1020 hPa
Visibilidad: 7000 m
Escasas nubes a una altura de 2500 ft

METAR: HLLM 230950Z 33010KT 7000 FEW025 23/15 Q1020

Hora: 12:38 (10:38 UTC)

Pronóstico

El informe se hizo hace 5 horas y 38 minutos, a las 05:00 UTC
Pronóstico válido del 23 a las 06 UTC al 24 a las 06 UTC
Viento 10 kt del norte-noroeste
Visibilidad: 8000 m
Nubes dispersas a una altura de 2500 ft
Evolucionando progresivamente
del 23 a las 20 UTC al 23 a las 22 UTC
Viento 2 kt con dirección variable
Probabilidad 40%
del 24 a las 00 UTC al 24 a las 06 UTC
Visibilidad: 5000 m
Cielo nuboso a una altura de 1000 ft
neblina

TAF: HLLM 230500Z 2306/2406 33010KT 8000 SCT025 BECMG 2320/2322 VRB02KT PROB40 2400/2406 5000 BR BKN010

Observaciones y pronósticos meteorológicos de más de 4000 aeropuertos (mensajes METAR y TAF).

Los puntos amarillos y rojos representan las estaciones disponibles.

Ponga el ratón en el punto deseado para ver el nombre de la estación.

Haga clic para ver las observaciones y los pronósticos meteorológicos.

Para cambiar el mapa : haga clic en los botones verdes con una cruz de color negro para hacer un zoom, en el botón verde con un guión para alejar o en las flechas verdes para mapas adyacentes.


METAR-TAF: